Corredores del Istmo


CARRERA  DE 5 KM - BALBOA - ENERO 6, 2002
TEMPERATURA: 78-83°F (26-28°C)  HUMEDAD: 79-89%  TIEMPO PAR: 23:25

   
  ____
LUGAR____ NO.          NOMBRE         EDAD     CORREGIDO      INDICE ___PASO___
  OA CATEG. HCP.   EQUIPO                        TIEMPO         DIFF       /KM   /MI
   1   1S   3   245      Nelson Piedra        30  17:25 17:25  - 1:51 111  3:29  5:36
   2   1G   1   954      Luis Camaño          51  17:32 15:32  - 3:43 124  3:30  5:38
   3   2S   7   519  03  Nicolás García       33  17:40 17:40  - 1:35 109  3:32  5:41
   4   1A   8   685      Braulio Castañeda    20  18:06 18:06  - 1:10 106  3:37  5:49
   5   3S  10   245      Nelson Piedra        30  18:10 18:10  - 1:06 106  3:38  5:50
   6   2A  15   381      Juan Alvarado        20  18:19 18:19  -  :57 105  3:39  5:53
   7   4S  13   248  03  Bruno Ramos          35  18:19 18:15  - 1:00 105  3:39  5:53
   8   1M   4   312  03  Ricardo Concepción   42  18:25 17:28  - 1:47 110  3:41  5:55
   9   1J  11   934      Ivan Villareal       16  18:49 18:12  - 1:03 106  3:45  6:03
  10   3A  24   425  03  Diego Coronado       26  19:01 19:01  -  :15 101  3:48  6:07
  11   5S  23   428      Fernando Barsallo    35  19:01 18:57  -  :18 102  3:48  6:07
  12   4A  25   328      Jaime Espinosa       25  19:04 19:04  -  :11 101  3:48  6:08
  13   2M   6   422  01  Manuel Camaño        46  19:10 17:40  - 1:35 109  3:50  6:10
  14   3M  14   339      Manuel Alvarez       42  19:16 18:17  -  :58 105  3:51  6:12
  15   2J  16   496      Florencio Cordoba    15  19:19 18:26  -  :49 104  3:51  6:13
  16   4M   5    83  04  Anselmo Broce        48  19:22 17:34  - 1:41 110  3:52  6:13
  17   5M   9   357      Oriel Chanis         45  19:34 18:09  - 1:06 106  3:54  6:17
  18   3J  26   448      Luis Camaño          17  19:37 19:11  -  :04 100  3:55  6:19
  19   6S  29    46  01  Agustin Diaz         36  19:49 19:37  +  :21  98  3:57  6:22
  20   6M  12   688  01  Moises Barragán      47  19:58 18:15  - 1:00 106  3:59  6:25
  21   1AF  2   269      Maritza Censión      21  20:06 16:25  - 2:50 117  4:01  6:28
  22   4J  28   749      César Jurado         16  20:10 19:31  +  :15  99  4:02  6:29
  23   7M  30   348  01  Mario Caliendo       41  20:43 19:47  +  :31  97  4:08  6:39
  24   5J  31   462      Charles Gale         15  20:46 19:49  +  :33  97  4:09  6:40
  25   8M  21   235  01  Guillermo Andrade    49  20:51 18:46  -  :29 103  4:10  6:42
  26   2G  18   474      Zenen Carrillo       50  20:53 18:39  -  :36 103  4:10  6:43
  27   5A  48   930      Javier Decerega      28  20:57 20:57  + 1:40  92  4:11  6:44
  28   9M  22    95  04  Jose A. Fernández    49  21:00 18:54  -  :21 102  4:11  6:45
  29   7S  42   729  04  Guillermo Toruño     39  21:07 20:28  + 1:12  94  4:13  6:48
  30   3G  20    40  03  Gil Balbuena         52  21:17 18:42  -  :33 103  4:15  6:51
  31   8S  55   755      Ronald Pineda        35  21:22 21:17  + 2:01  91  4:16  6:52
  32  10M  44   753      José Manuel Vásquez  40  21:28 20:39  + 1:23  93  4:17  6:54
  33   6J  54   399      Hector Ramos         17  21:43 21:15  + 1:59  91  4:20  6:59
  34  11M  35   282  03  Nicolás Coronado     46  21:46 20:03  +  :47  96  4:21  7:00
  35  12M  40   354  03  Duber Vega           44  21:52 20:27  + 1:11  94  4:22  7:02
  36  13M  46    69  03  Aramis Mora          42  21:55 20:48  + 1:32  93  4:23  7:03
  37  14M  37   113      Ricaurte Macías      47  21:58 20:04  +  :48  96  4:23  7:04
  38   9S  66   101      Jose Decerega        31  22:01 22:01  + 2:44  88  4:24  7:05
  39   7J  58   220      Fidel Guillen        16  22:06 21:22  + 2:06  90  4:25  7:06
  40   4G  17   820  01  Hilario Barría       57  22:08 18:38  -  :37 103  4:25  7:07
  41   15M  51   45      Alberto Coye         42  22:10 21:02  + 1:46  92  4:26  7:08
  42   10S  71  595      Martin Rivas         32  22:25 22:25  + 3:08  86  4:29  7:12
  43   11S  63  786  01  Vladimir Bolaños     39  22:32 21:51  + 2:35  88  4:30  7:15
  44   16M  60   50      Arturo Santizo       42  22:34 21:25  + 2:09  90  4:30  7:16
  45   5G  36   954      Luis Camaño          51  22:38 20:03  +  :47  96  4:31  7:17
  46   17M  61  677      Robinson González    42  22:42 21:32  + 2:16  89  4:32  7:18
  47   12S  76  495      Javier Chong         32  22:49 22:49  + 3:32  84  4:33  7:20
  48   13S  70  655  02  Elmer Ortiz          38  22:55 22:22  + 3:05  86  4:35  7:22
  49   18M  62  665  04  Lorenzo Moreno       43  23:01 21:41  + 2:25  89  4:36  7:24
  50   6G  41   543      Gregorio Miró        51  23:06 20:27  + 1:11  94  4:37  7:26
  51   14S  80  185      Alexis Santamaría    30  23:08 23:08  + 3:52  83  4:37  7:26
  52   8J  67   928      Luis A. Camaño       15  23:13 22:09  + 2:53  87  4:38  7:28
  53   9J  78   548      Karina Cabrera       17  23:21 22:50  + 3:34  84  4:40  7:30
  54   7G  45   201  03  Humberto Villareal   51  23:23 20:43  + 1:27  93  4:40  7:31
  55   1SF  19  918      Hanuschka Santamaría 39  23:36 18:41  -  :34 103  4:43  7:35
  56   8G  39   746      Jacinto Londoño      56  23:51 20:15  +  :59  95  4:46  7:40
  57   9G  53   484  01  Edmundo Andrión      51  23:57 21:13  + 1:57  91  4:47  7:42
  58   15S  91  493      José Barahona        36  24:01 23:45  + 4:29  81  4:48  7:43
  59   10G  59  142      Guillermo Quiñones   51  24:10 21:24  + 2:08  90  4:50  7:46
  60   19M  81  161      Saúl Ruíz            41  24:16 23:11  + 3:55  83  4:51  7:48
  61   16S  94  141      Elmer Velasquez      35  24:22 24:17  + 5:01  79  4:52  7:50
  62   6A  95   531      Alexis Espino        27  24:25 24:25  + 5:08  79  4:53  7:51
  63   10J  74  550      Yassir Cabrera       13  24:40 22:44  + 3:28  85  4:56  7:56
  64   2SF  34  758  04  Loren Miranda        36  24:43 19:59  +  :43  96  4:56  7:57
  65   11G  68  407      Alfonso Pérez        50  24:52 22:13  + 2:57  87  4:58  8:00
  66   20M  73  622      Diógenes Zárate      48  24:55 22:37  + 3:21  85  4:59  8:01
  67   21M  85  780      Vasco Gernado        44  24:58 23:21  + 4:05  82  4:59  8:02
  68   3SF  32  547      Eira Hurtado         39  25:07 19:54  +  :38  97  5:01  8:05
  69   12G  69  671      Daniel Alveo         51  25:12 22:19  + 3:03  86  5:02  8:06
  70   22M  82  679      Omar Tuñon           46  25:13 23:13  + 3:57  83  5:02  8:06
  71   1JF  27  456      Susan Chong          14  25:15 19:22  +  :06  99  5:03  8:07
  72   17S  97  501      Tomás Ayala          39  25:16 24:30  + 5:14  79  5:03  8:08
  73   23M  75  430  02  Johnny Santamaría    49  25:19 22:48  + 3:32  84  5:03  8:09
  74   24M  77  188      Saúl Noblesilla      49  25:22 22:49  + 3:33  84  5:04  8:09
  75   13G  56  497      Arturo Volvarán      58  25:31 21:18  + 2:02  90  5:06  8:12
  76   11J  33  621      Javier Chong          7  25:32 19:57  +  :41  97  5:06  8:13
  77   12J  47  457      Jose Eduardo Chong    9  25:34 20:54  + 1:38  92  5:06  8:13
  78   13J  79  473      Billy Gordon         12  25:34 23:03  + 3:47  84  5:06  8:13
  79   1V   43   72  01  Lionel Jiménez       62  25:34 20:33  + 1:17  94  5:06  8:13
  80   18S  102 215      Saeki Susumu         35  25:40 25:34  + 6:18  75  5:08  8:15
  81   2AF  50  125      Sara Hernández       26  25:43 21:00  + 1:44  92  5:08  8:16
  82   19S  100 614      Alexis Arosemena     39  25:45 24:57  + 5:41  77  5:09  8:17
  83   25M  90  508      Roman Canto          47  25:49 23:35  + 4:19  82  5:09  8:18
  84   26M  88   47      Leovigildo Castillo  48  25:57 23:32  + 4:16  82  5:11  8:21
  85   14G  83  407      Alfonso Pérez        50  26:01 23:15  + 3:59  83  5:12  8:22
  86   27M  87  702      Sebastian Concepción 49  26:07 23:30  + 4:14  82  5:13  8:24
  87   28M  89  197      José Gómez           49  26:10 23:33  + 4:17  82  5:14  8:25
  88   2JF  38  456      Susan Chong          14  26:15 20:08  +  :52  96  5:15  8:26
  89   4SF  57  323      Arcia Jehovanna      36  26:23 21:20  + 2:04  90  5:16  8:29
  90   20S  105 451      Luis Atencio         31  26:31 26:31  + 7:14  73  5:18  8:31
  91   7A  106  326      Eliecer Quintero     29  26:34 26:34  + 7:18  72  5:18  8:33
  92   21S  108 933      Luis Menendez        32  26:46 26:46  + 7:30  72  5:21  8:37
  93   15G  86  202      Eduardo Laguna       53  26:52 23:25  + 4:09  82  5:22  8:39
  94   14J  98  788      Lucidio Herrera      13  26:55 24:49  + 5:33  78  5:23  8:40
  95   22S  110 589      Higenio Rodríguez    34  27:10 27:10  + 7:53  71  5:26  8:44
  96   23S  111 464      Marco Gandasegui     34  27:22 27:22  + 8:05  70  5:28  8:48
  97   2V  64   553      Jorge Romero         63  27:28 21:51  + 2:35  88  5:29  8:50
  98   16G  92  539  02  Ramón Casal          53  27:45 24:10  + 4:54  80  5:33  8:55
  99   1MF  52  838  02  Yira Pérez           46  28:01 21:05  + 1:49  91  5:36  9:00
  100  24S  117 487      Franklin Fernandez   31  28:16 28:16  + 9:00  68  5:39  9:06
  101  25S  116  42      Fernando Mojica      35  28:19 28:13  + 8:57  68  5:39  9:07
  102  3JF  72  606      Carol Chong          16  28:28 22:29  + 3:13  86  5:41  9:09
  103  17G  99   73      Freddy García        53  28:30 24:50  + 5:34  78  5:41  9:10
  104  29M  112 116      José Sánchez         41  28:49 27:32  + 8:16  70  5:45  9:16
  105  15J  113 453      Marcos Montoya       15  28:52 27:32  + 8:16  70  5:46  9:17
  106  1GF  49  423  04  Carmen Barraza       51  28:57 20:57  + 1:41  92  5:47  9:18
  107  2MF  84  609      Ruth Molino          41  29:47 23:15  + 3:59  83  5:57  9:35
  108  18G  107 192      Gustavo Gordon       51  30:12 26:45  + 7:29  72  6:02  9:43
  109  16J  118  21      Juan Gordon          15  30:21 28:57  + 9:41  67  6:04  9:45
  110  30M  115 869      Aquilino Araúz       45  30:23 28:12  + 8:56  68  6:04  9:46
  111  3V    93 695      Amilcar Villareal    63  30:28 24:13  + 4:57  80  6:05  9:48
  112  19G  101 537      José Alveo           58  30:31 25:28  + 6:12  76  6:06  9:49
  113  17J  109 477      Rodolfo Perez        11  30:34 26:48  + 7:32  72  6:06  9:50
  114  20G  103 278      César Villareal      55  30:40 26:17  + 7:01  73  6:08  9:52
  115  18J  122 929      Luis Antonio Camaño  16  30:52 29:51  +10:35  65  6:10  9:55
  116  19J  119 492      Alex Arosemena Lopez 14  31:02 29:09  + 9:53  66  6:12  9:59
  117  26S  123 254      Gilberto Robles      39  31:49 30:51  +11:35  62  6:21 10:14
  118  21G  114 598      Edgardo Vergara      53  31:57 27:50  + 8:34  69  6:23 10:16
  119  4V    65  44  01  Luis Díaz M.         76  32:13 21:54  + 2:38  88  6:26 10:22
  120  22G  120 927      Ricardo Bermúdez     54  33:46 29:11  + 9:55  66  6:45 10:52
  121  2GF  96  129      Teresa Arias         52  34:05 24:28  + 5:12  79  6:49 10:58
  122  3MF  104 452      Rosa V. de Guillen   49  36:01 26:29  + 7:13  73  7:12 11:35
  123  27S  128 486      Raúl Zelluet         35  39:25 39:16  +20:00  49  7:53 12:41
  124  20J  125 499      Tokina Saeki          9  40:15 32:54  +13:38  59  8:03 12:57
  125  3AF  126 151      Yoshiko Saito        23  40:17 32:55  +13:39  59  8:03 12:58
  126  4JF  121 230      Walkiria Clearey     11  41:05 29:27  +10:11  65  8:13 13:13
  127  21J  124 498      Namine Saeki          7  41:34 32:28  +13:12  59  8:18 13:22
  128  28S  129 500      Junko Saeki          35  41:38 41:28  +22:12  46  8:19 13:23
  129  4AF  127 151      Yoshiko Saito        23  41:40 34:02  +14:46  57  8:20 13:24

To contact us:

Phone: 507-261-8791
Email: ajones@cableonda.net